createdAt,value
2017-10-27T00:00:21.442Z,85.80
2017-10-27T00:02:48.938Z,85.80
2017-10-27T00:05:16.442Z,85.70
2017-10-27T00:07:44.726Z,85.20
2017-10-27T00:10:12.986Z,85.00
2017-10-27T00:12:41.270Z,84.90
2017-10-27T00:15:09.551Z,85.70
2017-10-27T00:17:37.830Z,84.80
2017-10-27T00:20:06.090Z,84.60
2017-10-27T00:22:33.594Z,84.50
2017-10-27T00:25:01.110Z,84.80
2017-10-27T00:27:29.387Z,85.60
2017-10-27T00:29:57.674Z,85.60
2017-10-27T00:32:25.934Z,85.40
2017-10-27T00:34:54.959Z,85.20
2017-10-27T00:37:22.465Z,85.00
2017-10-27T00:39:49.987Z,85.30
2017-10-27T00:42:17.497Z,85.30
2017-10-27T00:44:45.011Z,85.20
2017-10-27T00:47:12.511Z,85.50
2017-10-27T00:49:40.007Z,85.60
2017-10-27T00:52:07.521Z,85.60
2017-10-27T00:54:35.014Z,85.80
2017-10-27T00:57:03.303Z,86.60
2017-10-27T00:59:30.798Z,86.40
2017-10-27T01:01:58.315Z,86.70
2017-10-27T01:04:26.574Z,87.30
2017-10-27T01:06:54.857Z,88.60
2017-10-27T01:09:23.118Z,87.80
2017-10-27T01:11:50.638Z,87.80
2017-10-27T01:14:18.138Z,87.80
2017-10-27T01:16:46.407Z,87.40
2017-10-27T01:19:13.927Z,87.90
2017-10-27T01:21:41.424Z,87.80
2017-10-27T01:24:08.943Z,87.90
2017-10-27T01:26:36.438Z,87.90
2017-10-27T01:29:03.954Z,88.20
2017-10-27T01:31:31.454Z,88.30
2017-10-27T01:33:59.758Z,88.40
2017-10-27T01:36:28.022Z,88.40
2017-10-27T01:38:56.278Z,88.30
2017-10-27T01:41:23.798Z,88.20
2017-10-27T01:43:51.294Z,88.00
2017-10-27T01:46:18.814Z,87.90
2017-10-27T01:48:46.310Z,88.00
2017-10-27T01:51:13.831Z,87.90
2017-10-27T01:53:41.330Z,87.70
2017-10-27T01:56:08.847Z,87.60
2017-10-27T01:58:36.342Z,87.50
2017-10-27T02:01:03.875Z,87.40
2017-10-27T02:03:31.366Z,87.10
2017-10-27T02:05:58.883Z,87.00
2017-10-27T02:08:26.382Z,86.80
2017-10-27T02:10:53.886Z,86.60
2017-10-27T02:13:21.414Z,86.50
2017-10-27T02:15:49.681Z,86.40
2017-10-27T02:18:17.203Z,86.40
2017-10-27T02:20:44.702Z,86.30
2017-10-27T02:23:12.991Z,86.90
2017-10-27T02:25:41.255Z,86.20
2017-10-27T02:28:08.775Z,86.10
2017-10-27T02:30:36.274Z,86.20
2017-10-27T02:33:04.562Z,87.00
2017-10-27T02:35:32.831Z,86.10
2017-10-27T02:38:01.111Z,86.00
2017-10-27T02:40:29.385Z,86.10
2017-10-27T02:42:57.667Z,85.80
2017-10-27T02:45:25.923Z,85.80
2017-10-27T02:47:54.236Z,85.50
2017-10-27T02:50:21.746Z,85.40
2017-10-27T02:52:49.278Z,85.30
2017-10-27T02:55:16.783Z,85.30
2017-10-27T02:57:44.300Z,85.30
2017-10-27T03:00:11.790Z,85.40
2017-10-27T03:02:39.311Z,85.40
2017-10-27T03:05:06.811Z,85.40
2017-10-27T03:07:35.097Z,85.50
2017-10-27T03:10:03.376Z,85.40
2017-10-27T03:12:31.671Z,85.40
2017-10-27T03:14:59.181Z,85.40
2017-10-27T03:17:26.703Z,85.20
2017-10-27T03:19:54.205Z,85.30
2017-10-27T03:22:21.726Z,85.40
2017-10-27T03:24:49.230Z,85.80
2017-10-27T03:27:16.751Z,86.90
2017-10-27T03:29:44.247Z,86.20
2017-10-27T03:32:11.769Z,86.30
2017-10-27T03:34:39.262Z,86.10
2017-10-27T03:37:06.778Z,86.40
2017-10-27T03:39:34.275Z,86.40
2017-10-27T03:42:01.803Z,86.70
2017-10-27T03:44:29.299Z,86.80
2017-10-27T03:46:56.814Z,87.00
2017-10-27T03:49:24.307Z,87.10
2017-10-27T03:51:51.851Z,87.30
2017-10-27T03:54:19.349Z,87.70
2017-10-27T03:56:47.635Z,87.80
2017-10-27T03:59:15.904Z,87.50
2017-10-27T04:01:44.183Z,83.90
2017-10-27T04:04:12.458Z,81.30
2017-10-27T04:06:40.734Z,80.80
2017-10-27T04:09:08.986Z,80.90
2017-10-27T04:11:36.510Z,80.90
2017-10-27T04:14:04.002Z,81.10
2017-10-27T04:16:31.510Z,82.00
2017-10-27T04:18:58.998Z,81.20
2017-10-27T04:21:26.510Z,79.20
2017-10-27T04:23:53.998Z,78.70
2017-10-27T04:26:21.513Z,78.80
2017-10-27T04:28:49.778Z,79.80
2017-10-27T04:31:18.067Z,80.10
2017-10-27T04:33:46.322Z,80.00
2017-10-27T04:36:13.838Z,80.00
2017-10-27T04:38:41.326Z,80.10
2017-10-27T04:41:08.839Z,80.90
2017-10-27T04:43:36.336Z,81.60
2017-10-27T04:46:03.848Z,82.10
2017-10-27T04:48:31.334Z,82.60
2017-10-27T04:50:58.849Z,83.50
2017-10-27T04:53:27.125Z,83.50
2017-10-27T04:55:55.406Z,84.30
2017-10-27T04:58:23.657Z,84.70
2017-10-27T05:00:51.167Z,84.50
2017-10-27T05:03:18.658Z,85.40
2017-10-27T05:05:46.171Z,84.70
2017-10-27T05:08:13.658Z,84.50
2017-10-27T05:10:41.170Z,84.00
2017-10-27T05:13:09.429Z,84.60
2017-10-27T05:15:36.938Z,84.50
2017-10-27T05:18:10.027Z,84.60
2017-10-27T05:20:43.171Z,84.80
2017-10-27T05:23:17.841Z,84.90
2017-10-27T05:25:45.350Z,84.90
2017-10-27T05:28:12.838Z,84.60
2017-10-27T05:30:40.353Z,84.70
2017-10-27T05:33:07.842Z,84.80
2017-10-27T05:35:36.117Z,85.30
2017-10-27T05:38:04.371Z,85.60
2017-10-27T05:40:31.891Z,85.60
2017-10-27T05:42:59.403Z,86.00
2017-10-27T05:45:27.682Z,86.80
2017-10-27T05:47:55.943Z,86.90
2017-10-27T05:50:23.463Z,86.90
2017-10-27T05:52:50.949Z,86.50
2017-10-27T05:55:18.459Z,86.80
2017-10-27T05:57:45.954Z,86.90
2017-10-27T06:00:13.466Z,86.60
2017-10-27T06:02:41.720Z,86.80
2017-10-27T06:05:09.230Z,86.80
2017-10-27T06:07:36.719Z,87.40
2017-10-27T06:10:04.232Z,87.30
2017-10-27T06:12:31.719Z,87.20
2017-10-27T06:14:59.234Z,87.20
2017-10-27T06:17:26.728Z,87.30
2017-10-27T06:19:54.238Z,86.80
2017-10-27T06:22:22.495Z,86.60
2017-10-27T06:24:50.010Z,86.60
2017-10-27T06:27:17.498Z,86.60
2017-10-27T06:29:45.018Z,87.10
2017-10-27T06:32:12.506Z,86.50
2017-10-27T06:34:40.015Z,86.20
2017-10-27T06:37:08.271Z,85.20
2017-10-27T06:39:35.780Z,85.20
2017-10-27T06:42:03.295Z,86.30
2017-10-27T06:44:31.550Z,86.10
2017-10-27T06:46:59.066Z,86.10
2017-10-27T06:49:26.562Z,86.40
2017-10-27T06:51:54.071Z,86.90
2017-10-27T06:54:21.559Z,87.00
2017-10-27T06:56:49.083Z,87.40
2017-10-27T06:59:16.575Z,86.70
2017-10-27T07:01:44.082Z,85.90
2017-10-27T07:04:12.334Z,85.80
2017-10-27T07:06:39.843Z,85.80
2017-10-27T07:09:07.334Z,85.40
2017-10-27T07:11:34.846Z,85.90
2017-10-27T07:14:02.334Z,83.30
2017-10-27T07:16:29.846Z,84.00
2017-10-27T07:18:58.099Z,82.90
2017-10-27T07:21:25.611Z,82.90
2017-10-27T07:23:53.108Z,82.60
2017-10-27T07:26:20.619Z,82.40
2017-10-27T07:28:48.111Z,83.10
2017-10-27T07:31:15.621Z,83.00
2017-10-27T07:33:43.881Z,83.10
2017-10-27T07:36:11.392Z,83.10
2017-10-27T07:38:38.886Z,83.00
2017-10-27T07:41:06.400Z,82.90
2017-10-27T07:43:33.902Z,82.50
2017-10-27T07:46:01.416Z,82.00
2017-10-27T07:48:28.906Z,82.00
2017-10-27T07:50:56.418Z,82.40
2017-10-27T07:53:23.915Z,81.40
2017-10-27T07:55:51.430Z,81.20
2017-10-27T07:58:18.922Z,81.90
2017-10-27T08:00:46.435Z,82.10
2017-10-27T08:03:14.689Z,81.20
2017-10-27T08:05:42.207Z,81.00
2017-10-27T08:08:09.700Z,80.50
2017-10-27T08:10:37.227Z,80.50
2017-10-27T08:13:04.740Z,80.40
2017-10-27T08:15:33.019Z,78.10
2017-10-27T08:18:01.280Z,77.40
2017-10-27T08:20:28.790Z,77.30
2017-10-27T08:22:56.278Z,76.40
2017-10-27T08:25:23.792Z,76.10
2017-10-27T08:27:51.290Z,73.50
2017-10-27T08:30:18.815Z,72.40
2017-10-27T08:32:46.310Z,69.70
2017-10-27T08:35:13.818Z,64.00
2017-10-27T08:37:41.307Z,58.80
2017-10-27T08:40:08.831Z,53.00
2017-10-27T08:42:36.318Z,50.10
2017-10-27T08:45:03.831Z,48.10
2017-10-27T08:47:32.086Z,46.60
2017-10-27T08:50:01.106Z,47.50
2017-10-27T08:52:29.366Z,46.90
2017-10-27T08:54:56.883Z,46.80
2017-10-27T08:57:24.382Z,44.40
2017-10-27T08:59:51.890Z,41.90
2017-10-27T09:02:19.378Z,38.70
2017-10-27T09:04:46.886Z,37.40
2017-10-27T09:07:14.379Z,35.40
2017-10-27T09:09:41.890Z,34.70
2017-10-27T09:12:10.146Z,33.20
2017-10-27T09:14:37.662Z,33.10
2017-10-27T09:17:05.148Z,32.60
2017-10-27T09:19:32.658Z,32.50
2017-10-27T09:22:00.159Z,33.00
2017-10-27T09:24:29.187Z,32.00
2017-10-27T09:26:57.447Z,31.00
2017-10-27T09:29:24.968Z,30.90
2017-10-27T09:31:52.463Z,32.30
2017-10-27T09:34:19.978Z,31.90
2017-10-27T09:36:47.491Z,33.70
2017-10-27T09:39:15.789Z,36.70
2017-10-27T09:41:43.282Z,36.50
2017-10-27T09:44:10.791Z,37.00
2017-10-27T09:46:39.047Z,38.40
2017-10-27T09:49:06.558Z,38.40
2017-10-27T09:51:34.050Z,37.50
2017-10-27T09:54:01.538Z,38.00
2017-10-27T09:56:29.815Z,39.90
2017-10-27T09:58:58.074Z,41.70
2017-10-27T10:01:25.590Z,41.60
2017-10-27T10:03:53.086Z,43.00
2017-10-27T10:06:22.102Z,46.00
2017-10-27T10:08:50.355Z,47.50
2017-10-27T10:11:17.862Z,47.50
2017-10-27T10:13:45.350Z,49.20
2017-10-27T10:16:12.862Z,50.60
2017-10-27T10:18:41.114Z,53.30
2017-10-27T10:21:08.630Z,53.20
2017-10-27T10:23:36.119Z,53.30
2017-10-27T10:26:03.634Z,53.10
2017-10-27T10:28:31.126Z,52.00
2017-10-27T10:30:58.638Z,51.30
2017-10-27T10:33:26.131Z,50.60
2017-10-27T10:35:53.642Z,50.30
2017-10-27T10:38:21.900Z,46.20
2017-10-27T10:40:49.410Z,46.20
2017-10-27T10:43:16.905Z,44.10
2017-10-27T10:45:45.185Z,44.40
2017-10-27T10:48:12.674Z,44.40
2017-10-27T10:50:40.950Z,46.30
2017-10-27T10:53:09.201Z,47.40
2017-10-27T10:55:36.710Z,47.30
2017-10-27T10:58:04.211Z,48.90
2017-10-27T11:00:31.738Z,48.10
2017-10-27T11:02:59.227Z,49.10
2017-10-27T11:05:26.746Z,49.30
2017-10-27T11:07:54.239Z,49.70
2017-10-27T11:10:21.754Z,48.90
2017-10-27T11:12:49.241Z,47.90
2017-10-27T11:15:16.751Z,43.70
2017-10-27T11:17:45.011Z,36.10
2017-10-27T11:20:13.298Z,35.70
2017-10-27T11:22:41.555Z,36.40
2017-10-27T11:25:09.066Z,36.30
2017-10-27T11:27:36.560Z,36.30
2017-10-27T11:30:04.090Z,38.60
2017-10-27T11:32:31.577Z,40.00
2017-10-27T11:34:59.850Z,42.60
2017-10-27T11:37:28.853Z,43.50
2017-10-27T11:39:57.126Z,44.50
2017-10-27T11:42:26.123Z,45.50
2017-10-27T11:44:53.629Z,45.40
2017-10-27T11:47:21.121Z,46.10
2017-10-27T11:49:48.644Z,46.70
2017-10-27T11:52:16.133Z,46.60
2017-10-27T11:54:43.642Z,46.20
2017-10-27T11:57:11.899Z,47.30
2017-10-27T11:59:39.422Z,47.20
2017-10-27T12:02:06.910Z,47.40
2017-10-27T12:04:34.423Z,48.50
2017-10-27T12:07:01.910Z,48.00
2017-10-27T12:09:29.428Z,49.00
2017-10-27T12:11:56.917Z,52.10
2017-10-27T12:14:24.426Z,53.50
2017-10-27T12:16:52.678Z,55.60
2017-10-27T12:19:21.695Z,58.70
2017-10-27T12:21:49.951Z,60.30
2017-10-27T12:24:18.231Z,59.10
2017-10-27T12:26:45.750Z,59.10
2017-10-27T12:29:13.266Z,60.50
2017-10-27T12:31:41.519Z,62.10
2017-10-27T12:34:10.538Z,61.90
2017-10-27T12:36:38.027Z,61.90
2017-10-27T12:39:05.538Z,60.40
2017-10-27T12:41:33.026Z,60.00
2017-10-27T12:44:02.043Z,55.70
2017-10-27T12:46:30.298Z,53.60
2017-10-27T12:48:57.810Z,53.60
2017-10-27T12:51:25.298Z,57.10
2017-10-27T12:53:52.813Z,55.40
2017-10-27T12:56:20.307Z,53.90
2017-10-27T12:58:47.823Z,52.90
2017-10-27T13:01:15.310Z,51.40
2017-10-27T13:03:42.817Z,49.90
2017-10-27T13:06:11.078Z,49.30
2017-10-27T13:08:38.590Z,49.20
2017-10-27T13:11:06.078Z,49.10
2017-10-27T13:13:33.590Z,49.50
2017-10-27T13:16:01.088Z,46.70
2017-10-27T13:18:28.602Z,46.30
2017-10-27T13:20:56.090Z,45.50
2017-10-27T13:23:23.597Z,44.90
2017-10-27T13:25:51.850Z,43.20
2017-10-27T13:28:19.366Z,43.20
2017-10-27T13:30:46.866Z,42.80
2017-10-27T13:33:15.150Z,43.30
2017-10-27T13:35:42.648Z,43.40
2017-10-27T13:38:10.163Z,43.40
2017-10-27T13:40:37.663Z,43.50
2017-10-27T13:43:05.195Z,44.10
2017-10-27T13:45:33.455Z,44.50
2017-10-27T13:48:01.739Z,44.70
2017-10-27T13:50:29.230Z,44.80
2017-10-27T13:52:56.718Z,44.50
2017-10-27T13:55:24.230Z,44.40
2017-10-27T13:57:52.488Z,44.70
2017-10-27T14:00:20.007Z,44.60
2017-10-27T14:02:47.506Z,45.10
2017-10-27T14:05:15.027Z,43.80
2017-10-27T14:07:42.518Z,43.10
2017-10-27T14:10:10.034Z,43.10
2017-10-27T14:12:37.527Z,41.50
2017-10-27T14:15:05.814Z,40.30
2017-10-27T14:17:33.306Z,40.30
2017-10-27T14:20:00.823Z,40.30
2017-10-27T14:22:28.334Z,40.20
2017-10-27T14:24:55.849Z,39.60
2017-10-27T14:27:23.342Z,40.10
2017-10-27T14:29:50.866Z,39.80
2017-10-27T14:32:18.361Z,39.90
2017-10-27T14:34:45.883Z,39.30
2017-10-27T14:37:14.144Z,40.60
2017-10-27T14:39:41.659Z,40.60
2017-10-27T14:42:09.151Z,39.80
2017-10-27T14:44:36.670Z,40.30
2017-10-27T14:47:04.159Z,39.90
2017-10-27T14:49:31.674Z,39.60
2017-10-27T14:51:59.926Z,40.50
2017-10-27T14:54:27.445Z,40.50
2017-10-27T14:56:54.934Z,41.50
2017-10-27T14:59:23.954Z,42.10
2017-10-27T15:01:52.210Z,42.30
2017-10-27T15:04:19.727Z,42.20
2017-10-27T15:06:47.219Z,43.40
2017-10-27T15:09:14.735Z,43.80
2017-10-27T15:11:42.227Z,44.40
2017-10-27T15:14:09.754Z,44.60
2017-10-27T15:16:37.247Z,44.60
2017-10-27T15:19:04.763Z,44.80
2017-10-27T15:21:32.258Z,45.40
2017-10-27T15:23:59.774Z,45.60
2017-10-27T15:26:27.342Z,46.00
2017-10-27T15:28:54.854Z,46.00
2017-10-27T15:31:22.351Z,46.70
2017-10-27T15:33:49.892Z,46.50
2017-10-27T15:36:18.162Z,47.20
2017-10-27T15:38:46.438Z,47.70
2017-10-27T15:41:14.698Z,47.90
2017-10-27T15:43:42.215Z,48.50
2017-10-27T15:46:09.750Z,48.50
2017-10-27T15:48:37.243Z,49.30
2017-10-27T15:51:04.754Z,48.50
2017-10-27T15:53:33.010Z,49.30
2017-10-27T15:56:00.527Z,49.30
2017-10-27T15:58:28.023Z,49.60
2017-10-27T16:00:55.546Z,49.40
2017-10-27T16:03:23.053Z,49.60
2017-10-27T16:05:51.334Z,50.10
2017-10-27T16:08:19.590Z,50.00
2017-10-27T16:10:47.111Z,50.00
2017-10-27T16:13:14.603Z,50.30
2017-10-27T16:15:42.115Z,51.00
2017-10-27T16:18:09.610Z,50.90
2017-10-27T16:20:37.142Z,51.10
2017-10-27T16:23:04.637Z,51.40
2017-10-27T16:25:32.158Z,51.20
2017-10-27T16:27:59.646Z,51.00
2017-10-27T16:30:27.163Z,51.10
2017-10-27T16:32:54.658Z,51.00
2017-10-27T16:35:22.174Z,51.60
2017-10-27T16:37:49.666Z,51.60
2017-10-27T16:40:17.179Z,51.70
2017-10-27T16:42:45.442Z,51.90
2017-10-27T16:45:13.733Z,52.10
2017-10-27T16:47:41.990Z,52.60
2017-10-27T16:50:09.503Z,52.60
2017-10-27T16:52:36.994Z,53.00
2017-10-27T16:55:04.515Z,52.70
2017-10-27T16:57:32.006Z,52.80
2017-10-27T16:59:59.526Z,53.10
2017-10-27T17:02:27.018Z,53.40
2017-10-27T17:04:54.530Z,53.80
2017-10-27T17:07:22.023Z,53.80
2017-10-27T17:09:49.541Z,53.90
2017-10-27T17:12:17.039Z,54.10
2017-10-27T17:14:44.554Z,54.00
2017-10-27T17:17:12.046Z,54.40
2017-10-27T17:19:39.595Z,54.50
2017-10-27T17:22:07.087Z,54.50
2017-10-27T17:24:35.369Z,55.20
2017-10-27T17:27:02.858Z,54.90
2017-10-27T17:29:31.142Z,55.20
2017-10-27T17:31:58.638Z,55.20
2017-10-27T17:34:26.135Z,55.10
2017-10-27T17:36:54.414Z,55.20
2017-10-27T17:39:22.670Z,55.80
2017-10-27T17:41:50.188Z,55.70
2017-10-27T17:44:17.683Z,56.00
2017-10-27T17:46:45.199Z,56.40
2017-10-27T17:49:12.691Z,56.20
2017-10-27T17:51:40.207Z,56.60
2017-10-27T17:54:07.707Z,57.00
2017-10-27T17:56:35.223Z,57.00
2017-10-27T17:59:02.714Z,57.00
2017-10-27T18:01:30.231Z,57.10
2017-10-27T18:03:57.723Z,57.40
2017-10-27T18:06:25.238Z,57.40
2017-10-27T18:08:53.499Z,57.80
2017-10-27T18:11:21.014Z,57.80
2017-10-27T18:13:48.507Z,57.70
2017-10-27T18:16:16.018Z,57.90
2017-10-27T18:18:43.523Z,58.30
2017-10-27T18:21:11.034Z,58.10
2017-10-27T18:23:38.526Z,58.20
2017-10-27T18:26:06.040Z,58.30
2017-10-27T18:28:33.538Z,58.40
2017-10-27T18:31:01.055Z,58.70
2017-10-27T18:33:28.546Z,59.40
2017-10-27T18:35:56.059Z,58.90
2017-10-27T18:38:24.329Z,59.10
2017-10-27T18:40:52.610Z,59.30
2017-10-27T18:43:20.871Z,59.30
2017-10-27T18:45:49.159Z,59.50
2017-10-27T18:48:17.423Z,59.80
2017-10-27T18:50:44.946Z,59.80
2017-10-27T18:53:12.433Z,59.80
2017-10-27T18:55:39.955Z,60.10
2017-10-27T18:58:07.446Z,60.70
2017-10-27T19:00:34.963Z,60.80
2017-10-27T19:03:02.479Z,61.10
2017-10-27T19:05:30.770Z,61.70
2017-10-27T19:07:59.026Z,62.00
2017-10-27T19:10:26.539Z,62.00
2017-10-27T19:12:54.036Z,61.90
2017-10-27T19:15:22.313Z,62.70
2017-10-27T19:17:49.811Z,62.60
2017-10-27T19:20:17.326Z,63.00
2017-10-27T19:22:44.814Z,64.40
2017-10-27T19:25:13.094Z,63.80
2017-10-27T19:27:41.354Z,63.80
2017-10-27T19:30:09.638Z,64.20
2017-10-27T19:32:37.895Z,64.20
2017-10-27T19:35:05.423Z,64.20
2017-10-27T19:37:32.926Z,64.40
2017-10-27T19:40:01.205Z,65.00
2017-10-27T19:42:29.466Z,65.40
2017-10-27T19:44:56.978Z,65.40
2017-10-27T19:47:24.469Z,65.60
2017-10-27T19:49:51.983Z,65.70
2017-10-27T19:52:19.478Z,66.00
2017-10-27T19:54:46.999Z,66.10
2017-10-27T19:57:14.502Z,66.40
2017-10-27T19:59:42.019Z,66.30
2017-10-27T20:02:09.515Z,66.50
2017-10-27T20:04:37.036Z,66.60
2017-10-27T20:07:04.530Z,67.50
2017-10-27T20:09:32.046Z,67.20
2017-10-27T20:11:59.547Z,67.00
2017-10-27T20:14:27.067Z,67.20
2017-10-27T20:16:54.557Z,67.40
2017-10-27T20:19:22.070Z,67.10
2017-10-27T20:21:49.567Z,67.30
2017-10-27T20:24:17.090Z,67.20
2017-10-27T20:26:44.583Z,67.30
2017-10-27T20:29:12.098Z,67.30
2017-10-27T20:31:40.359Z,67.50
2017-10-27T20:34:08.643Z,67.80
2017-10-27T20:36:36.906Z,67.60
2017-10-27T20:39:04.430Z,67.60
2017-10-27T20:41:31.921Z,68.10
2017-10-27T20:43:59.447Z,68.30
2017-10-27T20:46:26.942Z,69.00
2017-10-27T20:48:55.234Z,70.40
2017-10-27T20:51:23.490Z,69.10
2017-10-27T20:53:50.998Z,69.10
2017-10-27T20:56:18.494Z,69.00
2017-10-27T20:58:46.014Z,69.20
2017-10-27T21:01:13.502Z,69.50
2017-10-27T21:03:41.019Z,69.70
2017-10-27T21:06:08.510Z,70.00
2017-10-27T21:08:36.047Z,70.10
2017-10-27T21:11:03.547Z,70.50
2017-10-27T21:13:31.059Z,70.70
2017-10-27T21:15:59.406Z,71.00
2017-10-27T21:18:27.686Z,71.40
2017-10-27T21:20:55.942Z,71.50
2017-10-27T21:23:24.201Z,71.80
2017-10-27T21:25:51.722Z,71.90
2017-10-27T21:28:19.218Z,71.90
2017-10-27T21:30:46.736Z,71.70
2017-10-27T21:33:14.230Z,72.00
2017-10-27T21:35:41.742Z,72.20
2017-10-27T21:38:09.238Z,72.50
2017-10-27T21:40:36.756Z,72.50
2017-10-27T21:43:04.251Z,72.50
2017-10-27T21:45:31.767Z,72.40
2017-10-27T21:48:00.027Z,72.50
2017-10-27T21:50:28.310Z,72.30
2017-10-27T21:52:56.571Z,72.60
2017-10-27T21:55:24.085Z,72.50
2017-10-27T21:57:51.586Z,72.30
2017-10-27T22:00:19.107Z,72.30
2017-10-27T22:02:46.599Z,72.30
2017-10-27T22:05:14.120Z,72.60
2017-10-27T22:07:41.614Z,72.60
2017-10-27T22:10:09.136Z,72.40
2017-10-27T22:12:36.630Z,72.60
2017-10-27T22:15:04.150Z,72.50
2017-10-27T22:17:31.654Z,72.50
2017-10-27T22:19:59.174Z,72.50
2017-10-27T22:22:26.670Z,72.60
2017-10-27T22:24:54.195Z,72.40
2017-10-27T22:27:21.695Z,72.30
2017-10-27T22:29:49.979Z,73.60
2017-10-27T22:32:18.238Z,72.40
2017-10-27T22:34:45.755Z,72.40
2017-10-27T22:37:13.250Z,72.50
2017-10-27T22:39:40.766Z,72.40
2017-10-27T22:42:08.258Z,72.10
2017-10-27T22:44:35.771Z,72.20
2017-10-27T22:47:03.271Z,72.20
2017-10-27T22:49:30.791Z,72.10
2017-10-27T22:51:58.294Z,73.00
2017-10-27T22:54:25.811Z,72.60
2017-10-27T22:56:53.310Z,71.70
2017-10-27T22:59:20.827Z,71.60
2017-10-27T23:01:48.322Z,71.30
2017-10-27T23:04:15.857Z,71.30
2017-10-27T23:06:43.346Z,71.60
2017-10-27T23:09:10.858Z,71.40
2017-10-27T23:11:38.351Z,71.70
2017-10-27T23:14:05.871Z,71.90
2017-10-27T23:16:33.379Z,71.70
2017-10-27T23:19:00.894Z,71.80
2017-10-27T23:21:28.397Z,71.50
2017-10-27T23:23:55.930Z,71.70
2017-10-27T23:26:23.430Z,72.00
2017-10-27T23:28:51.718Z,71.70
2017-10-27T23:31:19.979Z,72.10
2017-10-27T23:33:48.266Z,72.10
2017-10-27T23:36:16.530Z,71.90
2017-10-27T23:38:44.046Z,72.00
2017-10-27T23:41:11.543Z,72.20
2017-10-27T23:43:39.070Z,72.00
2017-10-27T23:46:06.562Z,71.90
2017-10-27T23:48:34.859Z,71.30
2017-10-27T23:51:03.114Z,71.50
2017-10-27T23:53:30.639Z,71.30
2017-10-27T23:55:58.135Z,71.20
2017-10-27T23:58:25.655Z,71.50
